DNMM

Murtala Muhammed International Airport

Lagos, Nigeria
METAR DNMM 251800Z 25006KT 9999 SCT011 FEW020CB 27/24 Q1011 NOSIG
Observed Flight Rules
Sep-25 @ 18:00 UTC (an hour ago) Visual Flight Rules
Wind Visibility Clouds
250° at 6 knots 10,000+ meters
  • Scattered at 1,100' AGL
  • Few at 2,000' AGL
Temperatures Readings
Current 27°C / 81°F
Dewpoint 24°C / 75°F
Humidity 84%
Altimeter 29.85" Hg
Pressure 1011 hPa
Elevation 38
METAR DNMM 251800Z 25006KT 9999 SCT011 FEW020CB 27/24 Q1011 NOSIG
Observed Flight Rules
Sep-25 @ 18:00 UTC
(an hour ago)
VFR
Wind Visibility
250° at 6 knots 10,000+ meters
Clouds
  • Scattered at 1,100' AGL
  • Few at 2,000' AGL
Temperature Dewpoint
27°C / 81°F 24°C / 75°F
Humidity Altimeter Pressure
84% 29.85" Hg 1011 hPa